sensor_id;sensor_type;location;lat;lon;timestamp;P1;durP1;ratioP1;P2;durP2;ratioP2
10313;SDS011;5202;49.138;10.090;2023-08-17T00:01:45;5.85;;;4.65;;
10313;SDS011;5202;49.138;10.090;2023-08-17T00:04:13;8.30;;;4.93;;
10313;SDS011;5202;49.138;10.090;2023-08-17T00:06:43;5.78;;;4.70;;
10313;SDS011;5202;49.138;10.090;2023-08-17T00:09:23;8.40;;;4.80;;
10313;SDS011;5202;49.138;10.090;2023-08-17T00:11:53;6.40;;;4.55;;
10313;SDS011;5202;49.138;10.090;2023-08-17T00:14:21;8.60;;;5.22;;
10313;SDS011;5202;49.138;10.090;2023-08-17T00:16:50;7.95;;;4.28;;
10313;SDS011;5202;49.138;10.090;2023-08-17T00:19:18;8.30;;;5.53;;
10313;SDS011;5202;49.138;10.090;2023-08-17T00:21:47;7.70;;;4.95;;
10313;SDS011;5202;49.138;10.090;2023-08-17T00:24:15;6.38;;;4.40;;
10313;SDS011;5202;49.138;10.090;2023-08-17T00:26:43;5.10;;;4.60;;
10313;SDS011;5202;49.138;10.090;2023-08-17T00:29:13;7.88;;;4.65;;
10313;SDS011;5202;49.138;10.090;2023-08-17T00:31:42;5.90;;;4.57;;
10313;SDS011;5202;49.138;10.090;2023-08-17T00:34:11;5.57;;;4.63;;
10313;SDS011;5202;49.138;10.090;2023-08-17T00:36:40;6.25;;;4.30;;
10313;SDS011;5202;49.138;10.090;2023-08-17T00:39:08;10.02;;;4.63;;
10313;SDS011;5202;49.138;10.090;2023-08-17T00:41:37;7.75;;;4.50;;
10313;SDS011;5202;49.138;10.090;2023-08-17T00:44:05;6.18;;;4.50;;
10313;SDS011;5202;49.138;10.090;2023-08-17T00:46:35;8.20;;;4.20;;
10313;SDS011;5202;49.138;10.090;2023-08-17T00:49:04;5.00;;;4.47;;
10313;SDS011;5202;49.138;10.090;2023-08-17T00:51:32;5.35;;;4.60;;
10313;SDS011;5202;49.138;10.090;2023-08-17T00:54:01;9.13;;;5.40;;
10313;SDS011;5202;49.138;10.090;2023-08-17T00:56:30;6.38;;;4.60;;
10313;SDS011;5202;49.138;10.090;2023-08-17T00:58:58;5.07;;;4.55;;
10313;SDS011;5202;49.138;10.090;2023-08-17T01:01:27;4.50;;;4.10;;
10313;SDS011;5202;49.138;10.090;2023-08-17T01:03:57;4.88;;;4.38;;
10313;SDS011;5202;49.138;10.090;2023-08-17T01:06:25;5.18;;;3.58;;
10313;SDS011;5202;49.138;10.090;2023-08-17T01:08:54;5.05;;;4.25;;
10313;SDS011;5202;49.138;10.090;2023-08-17T01:11:25;4.97;;;4.13;;
10313;SDS011;5202;49.138;10.090;2023-08-17T01:14:01;6.35;;;4.28;;
10313;SDS011;5202;49.138;10.090;2023-08-17T01:16:35;6.72;;;4.38;;
10313;SDS011;5202;49.138;10.090;2023-08-17T01:19:11;7.75;;;4.28;;
10313;SDS011;5202;49.138;10.090;2023-08-17T01:21:49;4.75;;;4.13;;
10313;SDS011;5202;49.138;10.090;2023-08-17T01:24:19;6.05;;;4.25;;
10313;SDS011;5202;49.138;10.090;2023-08-17T01:26:48;5.30;;;4.45;;
10313;SDS011;5202;49.138;10.090;2023-08-17T01:29:16;5.28;;;3.65;;
10313;SDS011;5202;49.138;10.090;2023-08-17T01:31:47;8.35;;;4.50;;
10313;SDS011;5202;49.138;10.090;2023-08-17T01:34:22;7.63;;;4.00;;
10313;SDS011;5202;49.138;10.090;2023-08-17T01:36:55;9.10;;;4.68;;
10313;SDS011;5202;49.138;10.090;2023-08-17T01:39:28;7.30;;;4.70;;
10313;SDS011;5202;49.138;10.090;2023-08-17T01:42:03;6.40;;;4.60;;
10313;SDS011;5202;49.138;10.090;2023-08-17T01:44:39;8.18;;;4.93;;
10313;SDS011;5202;49.138;10.090;2023-08-17T01:47:07;8.07;;;4.65;;
10313;SDS011;5202;49.138;10.090;2023-08-17T01:49:37;8.02;;;4.80;;
10313;SDS011;5202;49.138;10.090;2023-08-17T01:52:06;6.85;;;4.65;;
10313;SDS011;5202;49.138;10.090;2023-08-17T01:54:35;4.85;;;4.35;;
10313;SDS011;5202;49.138;10.090;2023-08-17T01:57:04;7.22;;;4.65;;
10313;SDS011;5202;49.138;10.090;2023-08-17T01:59:32;6.07;;;4.30;;
10313;SDS011;5202;49.138;10.090;2023-08-17T02:02:00;6.50;;;4.43;;
10313;SDS011;5202;49.138;10.090;2023-08-17T02:04:29;5.13;;;4.47;;
10313;SDS011;5202;49.138;10.090;2023-08-17T02:07:07;7.38;;;4.15;;
10313;SDS011;5202;49.138;10.090;2023-08-17T02:09:36;9.15;;;4.70;;
10313;SDS011;5202;49.138;10.090;2023-08-17T02:12:05;6.13;;;4.72;;
10313;SDS011;5202;49.138;10.090;2023-08-17T02:14:34;4.82;;;4.35;;
10313;SDS011;5202;49.138;10.090;2023-08-17T02:17:03;7.18;;;4.60;;
10313;SDS011;5202;49.138;10.090;2023-08-17T02:19:32;5.15;;;4.60;;
10313;SDS011;5202;49.138;10.090;2023-08-17T02:22:01;6.35;;;4.90;;
10313;SDS011;5202;49.138;10.090;2023-08-17T02:24:29;5.22;;;4.28;;
10313;SDS011;5202;49.138;10.090;2023-08-17T02:26:59;5.10;;;4.05;;
10313;SDS011;5202;49.138;10.090;2023-08-17T02:29:27;5.13;;;4.55;;
10313;SDS011;5202;49.138;10.090;2023-08-17T02:31:57;7.72;;;4.13;;
10313;SDS011;5202;49.138;10.090;2023-08-17T02:34:25;6.55;;;5.22;;
10313;SDS011;5202;49.138;10.090;2023-08-17T02:36:54;6.75;;;3.83;;
10313;SDS011;5202;49.138;10.090;2023-08-17T02:39:23;7.22;;;4.20;;
10313;SDS011;5202;49.138;10.090;2023-08-17T02:41:51;5.80;;;4.10;;
10313;SDS011;5202;49.138;10.090;2023-08-17T02:44:21;5.85;;;4.53;;
10313;SDS011;5202;49.138;10.090;2023-08-17T02:46:50;8.10;;;4.40;;
10313;SDS011;5202;49.138;10.090;2023-08-17T02:49:19;6.15;;;4.75;;
10313;SDS011;5202;49.138;10.090;2023-08-17T02:51:48;5.68;;;4.63;;
10313;SDS011;5202;49.138;10.090;2023-08-17T02:54:16;4.93;;;4.43;;
10313;SDS011;5202;49.138;10.090;2023-08-17T02:56:45;5.25;;;4.13;;
10313;SDS011;5202;49.138;10.090;2023-08-17T02:59:13;11.23;;;4.38;;
10313;SDS011;5202;49.138;10.090;2023-08-17T03:01:43;5.45;;;4.78;;
10313;SDS011;5202;49.138;10.090;2023-08-17T03:04:13;5.32;;;4.18;;
10313;SDS011;5202;49.138;10.090;2023-08-17T03:06:41;10.63;;;4.40;;
10313;SDS011;5202;49.138;10.090;2023-08-17T03:09:10;5.65;;;4.13;;
10313;SDS011;5202;49.138;10.090;2023-08-17T03:11:38;5.25;;;4.10;;
10313;SDS011;5202;49.138;10.090;2023-08-17T03:14:06;6.05;;;3.50;;
10313;SDS011;5202;49.138;10.090;2023-08-17T03:16:35;7.35;;;4.00;;
10313;SDS011;5202;49.138;10.090;2023-08-17T03:19:05;8.43;;;4.28;;
10313;SDS011;5202;49.138;10.090;2023-08-17T03:21:39;4.40;;;4.00;;
10313;SDS011;5202;49.138;10.090;2023-08-17T03:24:09;4.70;;;4.20;;
10313;SDS011;5202;49.138;10.090;2023-08-17T03:26:37;6.22;;;4.63;;
10313;SDS011;5202;49.138;10.090;2023-08-17T03:29:07;3.83;;;3.53;;
10313;SDS011;5202;49.138;10.090;2023-08-17T03:31:37;8.25;;;4.50;;
10313;SDS011;5202;49.138;10.090;2023-08-17T03:34:08;5.53;;;4.85;;
10313;SDS011;5202;49.138;10.090;2023-08-17T03:36:37;8.60;;;4.25;;
10313;SDS011;5202;49.138;10.090;2023-08-17T03:39:05;6.22;;;3.88;;
10313;SDS011;5202;49.138;10.090;2023-08-17T03:41:37;4.25;;;3.45;;
10313;SDS011;5202;49.138;10.090;2023-08-17T03:44:06;3.10;;;2.90;;
10313;SDS011;5202;49.138;10.090;2023-08-17T03:46:36;7.20;;;3.15;;
10313;SDS011;5202;49.138;10.090;2023-08-17T03:49:04;3.60;;;3.30;;
10313;SDS011;5202;49.138;10.090;2023-08-17T03:51:34;4.55;;;3.17;;
10313;SDS011;5202;49.138;10.090;2023-08-17T03:54:02;6.95;;;3.38;;
10313;SDS011;5202;49.138;10.090;2023-08-17T03:56:31;6.10;;;3.60;;
10313;SDS011;5202;49.138;10.090;2023-08-17T03:59:00;3.95;;;3.55;;
10313;SDS011;5202;49.138;10.090;2023-08-17T04:01:28;3.90;;;3.35;;
10313;SDS011;5202;49.138;10.090;2023-08-17T04:03:57;4.60;;;4.07;;
10313;SDS011;5202;49.138;10.090;2023-08-17T04:06:26;5.82;;;3.60;;
10313;SDS011;5202;49.138;10.090;2023-08-17T04:08:57;4.30;;;3.90;;
10313;SDS011;5202;49.138;10.090;2023-08-17T04:11:25;7.28;;;3.90;;
10313;SDS011;5202;49.138;10.090;2023-08-17T04:13:54;5.10;;;4.50;;
10313;SDS011;5202;49.138;10.090;2023-08-17T04:16:22;6.20;;;4.70;;
10313;SDS011;5202;49.138;10.090;2023-08-17T04:18:51;7.45;;;4.88;;
10313;SDS011;5202;49.138;10.090;2023-08-17T04:21:19;5.60;;;5.03;;
10313;SDS011;5202;49.138;10.090;2023-08-17T04:23:48;5.70;;;3.78;;
10313;SDS011;5202;49.138;10.090;2023-08-17T04:26:18;5.03;;;4.35;;
10313;SDS011;5202;49.138;10.090;2023-08-17T04:28:47;4.93;;;4.38;;
10313;SDS011;5202;49.138;10.090;2023-08-17T04:31:16;7.68;;;4.20;;
10313;SDS011;5202;49.138;10.090;2023-08-17T04:33:54;4.80;;;3.90;;
10313;SDS011;5202;49.138;10.090;2023-08-17T04:36:23;3.90;;;3.60;;
10313;SDS011;5202;49.138;10.090;2023-08-17T04:38:53;4.18;;;3.75;;
10313;SDS011;5202;49.138;10.090;2023-08-17T04:41:24;6.60;;;4.20;;
10313;SDS011;5202;49.138;10.090;2023-08-17T04:43:53;4.97;;;4.00;;
10313;SDS011;5202;49.138;10.090;2023-08-17T04:46:22;5.53;;;4.00;;
10313;SDS011;5202;49.138;10.090;2023-08-17T04:48:51;7.85;;;4.38;;
10313;SDS011;5202;49.138;10.090;2023-08-17T04:51:20;4.53;;;4.05;;
10313;SDS011;5202;49.138;10.090;2023-08-17T04:53:48;5.20;;;4.70;;
10313;SDS011;5202;49.138;10.090;2023-08-17T04:56:17;6.40;;;5.18;;
10313;SDS011;5202;49.138;10.090;2023-08-17T04:58:47;5.38;;;4.85;;
10313;SDS011;5202;49.138;10.090;2023-08-17T05:01:17;6.05;;;4.97;;
10313;SDS011;5202;49.138;10.090;2023-08-17T05:03:45;5.68;;;4.80;;
10313;SDS011;5202;49.138;10.090;2023-08-17T05:06:14;5.93;;;4.43;;
10313;SDS011;5202;49.138;10.090;2023-08-17T05:08:42;4.80;;;4.32;;
10313;SDS011;5202;49.138;10.090;2023-08-17T05:11:11;6.30;;;4.90;;
10313;SDS011;5202;49.138;10.090;2023-08-17T05:13:40;5.20;;;4.50;;
10313;SDS011;5202;49.138;10.090;2023-08-17T05:16:09;8.23;;;5.50;;
10313;SDS011;5202;49.138;10.090;2023-08-17T05:18:38;6.55;;;5.95;;
10313;SDS011;5202;49.138;10.090;2023-08-17T05:21:07;9.05;;;5.85;;
10313;SDS011;5202;49.138;10.090;2023-08-17T05:23:35;8.68;;;6.18;;
10313;SDS011;5202;49.138;10.090;2023-08-17T05:26:04;10.43;;;5.80;;
10313;SDS011;5202;49.138;10.090;2023-08-17T05:28:32;7.72;;;6.25;;
10313;SDS011;5202;49.138;10.090;2023-08-17T05:31:06;8.43;;;5.75;;
10313;SDS011;5202;49.138;10.090;2023-08-17T05:33:40;7.03;;;5.65;;
10313;SDS011;5202;49.138;10.090;2023-08-17T05:36:09;9.07;;;6.05;;
10313;SDS011;5202;49.138;10.090;2023-08-17T05:38:37;7.00;;;5.90;;
10313;SDS011;5202;49.138;10.090;2023-08-17T05:41:05;8.82;;;5.78;;
10313;SDS011;5202;49.138;10.090;2023-08-17T05:43:34;6.30;;;5.70;;
10313;SDS011;5202;49.138;10.090;2023-08-17T05:46:02;6.75;;;6.05;;
10313;SDS011;5202;49.138;10.090;2023-08-17T05:48:32;9.07;;;6.43;;
10313;SDS011;5202;49.138;10.090;2023-08-17T05:51:02;7.03;;;6.22;;
10313;SDS011;5202;49.138;10.090;2023-08-17T05:53:30;6.82;;;6.03;;
10313;SDS011;5202;49.138;10.090;2023-08-17T05:55:59;6.28;;;5.68;;
10313;SDS011;5202;49.138;10.090;2023-08-17T05:58:27;7.13;;;6.35;;
10313;SDS011;5202;49.138;10.090;2023-08-17T06:01:03;8.32;;;6.43;;
10313;SDS011;5202;49.138;10.090;2023-08-17T06:03:33;11.15;;;6.68;;
10313;SDS011;5202;49.138;10.090;2023-08-17T06:06:04;7.15;;;6.45;;
10313;SDS011;5202;49.138;10.090;2023-08-17T06:08:33;9.05;;;6.13;;
10313;SDS011;5202;49.138;10.090;2023-08-17T06:11:01;6.43;;;5.75;;
10313;SDS011;5202;49.138;10.090;2023-08-17T06:13:30;6.05;;;5.35;;
10313;SDS011;5202;49.138;10.090;2023-08-17T06:15:58;7.72;;;6.05;;
10313;SDS011;5202;49.138;10.090;2023-08-17T06:18:28;6.47;;;5.88;;
10313;SDS011;5202;49.138;10.090;2023-08-17T06:20:57;7.72;;;5.90;;
10313;SDS011;5202;49.138;10.090;2023-08-17T06:23:27;6.65;;;6.05;;
10313;SDS011;5202;49.138;10.090;2023-08-17T06:25:56;7.35;;;6.38;;
10313;SDS011;5202;49.138;10.090;2023-08-17T06:28:25;8.90;;;7.00;;
10313;SDS011;5202;49.138;10.090;2023-08-17T06:30:55;7.32;;;6.53;;
10313;SDS011;5202;49.138;10.090;2023-08-17T06:33:23;8.63;;;7.10;;
10313;SDS011;5202;49.138;10.090;2023-08-17T06:35:52;10.82;;;6.68;;
10313;SDS011;5202;49.138;10.090;2023-08-17T06:38:20;8.57;;;6.65;;
10313;SDS011;5202;49.138;10.090;2023-08-17T06:40:50;8.50;;;7.03;;
10313;SDS011;5202;49.138;10.090;2023-08-17T06:43:19;10.07;;;7.53;;
10313;SDS011;5202;49.138;10.090;2023-08-17T06:45:48;9.32;;;7.57;;
10313;SDS011;5202;49.138;10.090;2023-08-17T06:48:16;8.18;;;7.07;;
10313;SDS011;5202;49.138;10.090;2023-08-17T06:50:44;9.73;;;6.63;;
10313;SDS011;5202;49.138;10.090;2023-08-17T06:53:12;8.75;;;6.97;;
10313;SDS011;5202;49.138;10.090;2023-08-17T06:55:41;8.13;;;7.22;;
10313;SDS011;5202;49.138;10.090;2023-08-17T06:58:11;7.65;;;6.75;;
10313;SDS011;5202;49.138;10.090;2023-08-17T07:00:39;16.17;;;7.78;;
10313;SDS011;5202;49.138;10.090;2023-08-17T07:03:08;9.48;;;8.48;;
10313;SDS011;5202;49.138;10.090;2023-08-17T07:05:37;11.13;;;7.93;;
10313;SDS011;5202;49.138;10.090;2023-08-17T07:08:05;9.85;;;8.23;;
10313;SDS011;5202;49.138;10.090;2023-08-17T07:10:34;9.77;;;7.95;;
10313;SDS011;5202;49.138;10.090;2023-08-17T07:13:03;8.48;;;7.32;;
10313;SDS011;5202;49.138;10.090;2023-08-17T07:15:33;10.65;;;8.13;;
10313;SDS011;5202;49.138;10.090;2023-08-17T07:18:02;9.60;;;7.00;;
10313;SDS011;5202;49.138;10.090;2023-08-17T07:20:31;9.55;;;7.32;;
10313;SDS011;5202;49.138;10.090;2023-08-17T07:22:59;9.10;;;7.35;;
10313;SDS011;5202;49.138;10.090;2023-08-17T07:25:27;10.65;;;7.93;;
10313;SDS011;5202;49.138;10.090;2023-08-17T07:27:56;10.05;;;8.00;;
10313;SDS011;5202;49.138;10.090;2023-08-17T07:30:24;10.63;;;7.93;;
10313;SDS011;5202;49.138;10.090;2023-08-17T07:32:54;9.07;;;7.90;;
10313;SDS011;5202;49.138;10.090;2023-08-17T07:35:22;11.73;;;7.40;;
10313;SDS011;5202;49.138;10.090;2023-08-17T07:37:51;12.50;;;8.05;;
10313;SDS011;5202;49.138;10.090;2023-08-17T07:40:34;8.68;;;7.57;;
10313;SDS011;5202;49.138;10.090;2023-08-17T07:43:02;9.43;;;7.78;;
10313;SDS011;5202;49.138;10.090;2023-08-17T07:45:31;11.20;;;7.15;;
10313;SDS011;5202;49.138;10.090;2023-08-17T07:48:01;16.10;;;7.60;;
10313;SDS011;5202;49.138;10.090;2023-08-17T07:50:29;8.20;;;6.85;;
10313;SDS011;5202;49.138;10.090;2023-08-17T07:52:58;9.70;;;7.72;;
10313;SDS011;5202;49.138;10.090;2023-08-17T07:55:26;8.15;;;7.30;;
10313;SDS011;5202;49.138;10.090;2023-08-17T07:57:54;8.98;;;8.10;;
10313;SDS011;5202;49.138;10.090;2023-08-17T08:00:23;8.43;;;7.30;;
10313;SDS011;5202;49.138;10.090;2023-08-17T08:02:51;9.05;;;7.43;;
10313;SDS011;5202;49.138;10.090;2023-08-17T08:05:21;9.27;;;7.85;;
10313;SDS011;5202;49.138;10.090;2023-08-17T08:07:56;8.40;;;7.50;;
10313;SDS011;5202;49.138;10.090;2023-08-17T08:10:24;8.95;;;8.15;;
10313;SDS011;5202;49.138;10.090;2023-08-17T08:12:52;8.40;;;7.60;;
10313;SDS011;5202;49.138;10.090;2023-08-17T08:15:21;10.73;;;8.00;;
10313;SDS011;5202;49.138;10.090;2023-08-17T08:17:49;10.10;;;8.13;;
10313;SDS011;5202;49.138;10.090;2023-08-17T08:20:18;11.88;;;8.77;;
10313;SDS011;5202;49.138;10.090;2023-08-17T08:22:48;8.65;;;7.80;;
10313;SDS011;5202;49.138;10.090;2023-08-17T08:25:17;7.88;;;6.28;;
10313;SDS011;5202;49.138;10.090;2023-08-17T08:27:45;9.40;;;7.32;;
10313;SDS011;5202;49.138;10.090;2023-08-17T08:30:13;9.05;;;7.25;;
10313;SDS011;5202;49.138;10.090;2023-08-17T08:32:43;8.50;;;7.68;;
10313;SDS011;5202;49.138;10.090;2023-08-17T08:35:11;8.15;;;7.35;;
10313;SDS011;5202;49.138;10.090;2023-08-17T08:37:40;8.93;;;7.05;;
10313;SDS011;5202;49.138;10.090;2023-08-17T08:40:11;7.63;;;6.82;;
10313;SDS011;5202;49.138;10.090;2023-08-17T08:42:40;9.13;;;7.75;;
10313;SDS011;5202;49.138;10.090;2023-08-17T08:45:09;7.78;;;6.97;;
10313;SDS011;5202;49.138;10.090;2023-08-17T08:47:38;10.00;;;7.10;;
10313;SDS011;5202;49.138;10.090;2023-08-17T08:50:07;7.72;;;6.90;;
10313;SDS011;5202;49.138;10.090;2023-08-17T08:52:41;9.25;;;7.28;;
10313;SDS011;5202;49.138;10.090;2023-08-17T08:55:15;13.18;;;6.93;;
10313;SDS011;5202;49.138;10.090;2023-08-17T08:57:46;8.50;;;7.18;;
10313;SDS011;5202;49.138;10.090;2023-08-17T09:00:17;9.13;;;7.30;;
10313;SDS011;5202;49.138;10.090;2023-08-17T09:02:47;8.63;;;7.72;;
10313;SDS011;5202;49.138;10.090;2023-08-17T09:05:16;7.60;;;6.35;;
10313;SDS011;5202;49.138;10.090;2023-08-17T09:07:46;7.22;;;6.50;;
10313;SDS011;5202;49.138;10.090;2023-08-17T09:10:18;7.80;;;6.80;;
10313;SDS011;5202;49.138;10.090;2023-08-17T09:12:47;10.70;;;7.35;;
10313;SDS011;5202;49.138;10.090;2023-08-17T09:15:16;7.80;;;7.03;;
10313;SDS011;5202;49.138;10.090;2023-08-17T09:17:45;7.85;;;7.05;;
10313;SDS011;5202;49.138;10.090;2023-08-17T09:23:04;7.85;;;7.10;;
10313;SDS011;5202;49.138;10.090;2023-08-17T09:25:39;7.20;;;6.55;;
10313;SDS011;5202;49.138;10.090;2023-08-17T09:28:09;7.53;;;6.72;;
10313;SDS011;5202;49.138;10.090;2023-08-17T09:33:32;9.02;;;6.72;;
10313;SDS011;5202;49.138;10.090;2023-08-17T09:36:01;8.60;;;6.60;;
10313;SDS011;5202;49.138;10.090;2023-08-17T09:38:30;9.85;;;7.20;;
10313;SDS011;5202;49.138;10.090;2023-08-17T09:41:00;8.52;;;7.18;;
10313;SDS011;5202;49.138;10.090;2023-08-17T09:43:28;9.15;;;6.70;;
10313;SDS011;5202;49.138;10.090;2023-08-17T09:45:59;8.38;;;6.88;;
10313;SDS011;5202;49.138;10.090;2023-08-17T09:48:29;7.75;;;7.05;;
10313;SDS011;5202;49.138;10.090;2023-08-17T09:50:59;8.02;;;7.13;;
10313;SDS011;5202;49.138;10.090;2023-08-17T09:53:28;7.50;;;6.80;;
10313;SDS011;5202;49.138;10.090;2023-08-17T09:55:57;9.25;;;7.35;;
10313;SDS011;5202;49.138;10.090;2023-08-17T09:58:28;7.93;;;7.13;;
10313;SDS011;5202;49.138;10.090;2023-08-17T10:00:57;9.38;;;6.90;;
10313;SDS011;5202;49.138;10.090;2023-08-17T10:03:32;8.90;;;6.70;;
10313;SDS011;5202;49.138;10.090;2023-08-17T10:06:05;8.10;;;6.70;;
10313;SDS011;5202;49.138;10.090;2023-08-17T10:08:38;7.43;;;6.68;;
10313;SDS011;5202;49.138;10.090;2023-08-17T10:11:12;7.35;;;6.65;;
10313;SDS011;5202;49.138;10.090;2023-08-17T10:13:48;6.72;;;6.10;;
10313;SDS011;5202;49.138;10.090;2023-08-17T10:16:22;7.45;;;6.72;;
10313;SDS011;5202;49.138;10.090;2023-08-17T10:18:59;6.70;;;6.10;;
10313;SDS011;5202;49.138;10.090;2023-08-17T10:21:36;7.10;;;6.50;;
10313;SDS011;5202;49.138;10.090;2023-08-17T10:24:22;6.70;;;6.10;;
10313;SDS011;5202;49.138;10.090;2023-08-17T10:26:52;6.72;;;6.13;;
10313;SDS011;5202;49.138;10.090;2023-08-17T10:29:21;7.47;;;6.70;;
10313;SDS011;5202;49.138;10.090;2023-08-17T10:31:51;7.00;;;6.28;;
10313;SDS011;5202;49.138;10.090;2023-08-17T10:34:20;7.07;;;6.40;;
10313;SDS011;5202;49.138;10.090;2023-08-17T10:36:49;7.63;;;6.93;;
10313;SDS011;5202;49.138;10.090;2023-08-17T10:39:20;9.18;;;7.03;;
10313;SDS011;5202;49.138;10.090;2023-08-17T10:41:56;6.78;;;6.18;;
10313;SDS011;5202;49.138;10.090;2023-08-17T10:44:38;8.13;;;6.25;;
10313;SDS011;5202;49.138;10.090;2023-08-17T10:47:21;6.82;;;6.07;;
10313;SDS011;5202;49.138;10.090;2023-08-17T10:49:52;8.40;;;6.35;;
10313;SDS011;5202;49.138;10.090;2023-08-17T10:52:29;8.77;;;6.22;;
10313;SDS011;5202;49.138;10.090;2023-08-17T10:54:59;6.82;;;6.18;;
10313;SDS011;5202;49.138;10.090;2023-08-17T10:57:33;7.55;;;6.60;;
10313;SDS011;5202;49.138;10.090;2023-08-17T11:00:07;8.57;;;6.32;;
10313;SDS011;5202;49.138;10.090;2023-08-17T11:02:44;6.25;;;5.75;;
10313;SDS011;5202;49.138;10.090;2023-08-17T11:05:34;7.35;;;6.65;;
10313;SDS011;5202;49.138;10.090;2023-08-17T11:08:04;6.35;;;5.70;;
10313;SDS011;5202;49.138;10.090;2023-08-17T11:10:33;7.28;;;6.57;;
10313;SDS011;5202;49.138;10.090;2023-08-17T11:13:03;8.18;;;5.85;;
10313;SDS011;5202;49.138;10.090;2023-08-17T11:15:37;6.32;;;5.72;;
10313;SDS011;5202;49.138;10.090;2023-08-17T11:18:11;6.35;;;5.75;;
10313;SDS011;5202;49.138;10.090;2023-08-17T11:20:40;7.20;;;6.15;;
10313;SDS011;5202;49.138;10.090;2023-08-17T11:23:09;8.32;;;5.75;;
10313;SDS011;5202;49.138;10.090;2023-08-17T11:25:38;9.88;;;6.30;;
10313;SDS011;5202;49.138;10.090;2023-08-17T11:28:08;8.20;;;5.63;;
10313;SDS011;5202;49.138;10.090;2023-08-17T11:30:37;6.55;;;5.95;;
10313;SDS011;5202;49.138;10.090;2023-08-17T11:33:06;6.13;;;5.53;;
10313;SDS011;5202;49.138;10.090;2023-08-17T11:35:35;7.90;;;5.60;;
10313;SDS011;5202;49.138;10.090;2023-08-17T11:38:03;7.72;;;6.15;;
10313;SDS011;5202;49.138;10.090;2023-08-17T11:40:34;8.52;;;6.07;;
10313;SDS011;5202;49.138;10.090;2023-08-17T11:43:03;8.77;;;5.82;;
10313;SDS011;5202;49.138;10.090;2023-08-17T11:45:58;8.02;;;5.35;;
10313;SDS011;5202;49.138;10.090;2023-08-17T11:48:28;6.57;;;5.80;;
10313;SDS011;5202;49.138;10.090;2023-08-17T11:51:02;5.90;;;5.25;;
10313;SDS011;5202;49.138;10.090;2023-08-17T11:53:35;6.95;;;5.82;;
10313;SDS011;5202;49.138;10.090;2023-08-17T11:56:06;7.13;;;5.82;;
10313;SDS011;5202;49.138;10.090;2023-08-17T11:58:40;7.50;;;5.10;;
10313;SDS011;5202;49.138;10.090;2023-08-17T12:01:12;7.18;;;5.80;;
10313;SDS011;5202;49.138;10.090;2023-08-17T12:03:53;8.10;;;5.57;;
10313;SDS011;5202;49.138;10.090;2023-08-17T12:06:31;6.30;;;5.40;;
10313;SDS011;5202;49.138;10.090;2023-08-17T12:09:00;6.55;;;5.50;;
10313;SDS011;5202;49.138;10.090;2023-08-17T12:11:31;7.45;;;5.70;;
10313;SDS011;5202;49.138;10.090;2023-08-17T12:14:07;6.22;;;5.70;;
10313;SDS011;5202;49.138;10.090;2023-08-17T12:16:46;6.63;;;5.75;;
10313;SDS011;5202;49.138;10.090;2023-08-17T12:19:15;7.18;;;5.43;;
10313;SDS011;5202;49.138;10.090;2023-08-17T12:21:44;6.30;;;5.80;;
10313;SDS011;5202;49.138;10.090;2023-08-17T12:24:13;5.72;;;5.22;;
10313;SDS011;5202;49.138;10.090;2023-08-17T12:26:42;5.82;;;5.22;;
10313;SDS011;5202;49.138;10.090;2023-08-17T12:29:12;5.70;;;5.18;;
10313;SDS011;5202;49.138;10.090;2023-08-17T12:31:41;6.07;;;5.25;;
10313;SDS011;5202;49.138;10.090;2023-08-17T12:34:10;6.00;;;5.43;;
10313;SDS011;5202;49.138;10.090;2023-08-17T12:36:39;5.72;;;5.22;;
10313;SDS011;5202;49.138;10.090;2023-08-17T12:39:11;7.25;;;5.45;;
10313;SDS011;5202;49.138;10.090;2023-08-17T12:41:39;7.65;;;5.80;;
10313;SDS011;5202;49.138;10.090;2023-08-17T12:44:08;5.82;;;5.20;;
10313;SDS011;5202;49.138;10.090;2023-08-17T12:46:43;8.38;;;6.00;;
10313;SDS011;5202;49.138;10.090;2023-08-17T12:49:13;8.70;;;5.50;;
10313;SDS011;5202;49.138;10.090;2023-08-17T12:51:41;8.77;;;5.85;;
10313;SDS011;5202;49.138;10.090;2023-08-17T12:54:11;5.80;;;5.07;;
10313;SDS011;5202;49.138;10.090;2023-08-17T12:56:40;5.88;;;5.38;;
10313;SDS011;5202;49.138;10.090;2023-08-17T12:59:08;5.75;;;4.90;;
10313;SDS011;5202;49.138;10.090;2023-08-17T13:01:38;5.50;;;5.00;;
10313;SDS011;5202;49.138;10.090;2023-08-17T13:04:06;5.80;;;5.30;;
10313;SDS011;5202;49.138;10.090;2023-08-17T13:06:36;7.93;;;5.47;;
10313;SDS011;5202;49.138;10.090;2023-08-17T13:09:15;6.22;;;5.63;;
10313;SDS011;5202;49.138;10.090;2023-08-17T13:11:45;5.78;;;5.13;;
10313;SDS011;5202;49.138;10.090;2023-08-17T13:14:13;5.55;;;5.03;;
10313;SDS011;5202;49.138;10.090;2023-08-17T13:16:43;5.78;;;4.80;;
10313;SDS011;5202;49.138;10.090;2023-08-17T13:19:11;6.18;;;5.10;;
10313;SDS011;5202;49.138;10.090;2023-08-17T13:21:41;5.72;;;4.57;;
10313;SDS011;5202;49.138;10.090;2023-08-17T13:24:09;6.38;;;5.22;;
10313;SDS011;5202;49.138;10.090;2023-08-17T13:26:38;5.40;;;4.90;;
10313;SDS011;5202;49.138;10.090;2023-08-17T13:29:10;5.85;;;4.50;;
10313;SDS011;5202;49.138;10.090;2023-08-17T13:31:38;5.97;;;4.70;;
10313;SDS011;5202;49.138;10.090;2023-08-17T13:34:07;5.50;;;5.00;;
10313;SDS011;5202;49.138;10.090;2023-08-17T13:36:37;8.63;;;5.38;;
10313;SDS011;5202;49.138;10.090;2023-08-17T13:39:08;6.35;;;5.70;;
10313;SDS011;5202;49.138;10.090;2023-08-17T13:41:36;5.63;;;5.13;;
10313;SDS011;5202;49.138;10.090;2023-08-17T13:44:07;5.85;;;5.30;;
10313;SDS011;5202;49.138;10.090;2023-08-17T13:46:35;7.38;;;5.40;;
10313;SDS011;5202;49.138;10.090;2023-08-17T13:49:04;7.40;;;5.82;;
10313;SDS011;5202;49.138;10.090;2023-08-17T13:51:32;6.63;;;5.80;;
10313;SDS011;5202;49.138;10.090;2023-08-17T13:54:00;6.75;;;5.97;;
10313;SDS011;5202;49.138;10.090;2023-08-17T13:56:30;7.95;;;6.38;;
10313;SDS011;5202;49.138;10.090;2023-08-17T13:58:59;8.13;;;7.32;;
10313;SDS011;5202;49.138;10.090;2023-08-17T14:01:29;7.38;;;6.63;;
10313;SDS011;5202;49.138;10.090;2023-08-17T14:03:57;7.80;;;7.10;;
10313;SDS011;5202;49.138;10.090;2023-08-17T14:06:26;7.38;;;6.07;;
10313;SDS011;5202;49.138;10.090;2023-08-17T14:08:54;7.43;;;6.72;;
10313;SDS011;5202;49.138;10.090;2023-08-17T14:11:24;7.60;;;6.63;;
10313;SDS011;5202;49.138;10.090;2023-08-17T14:13:54;10.60;;;6.75;;
10313;SDS011;5202;49.138;10.090;2023-08-17T14:16:22;9.43;;;6.07;;
10313;SDS011;5202;49.138;10.090;2023-08-17T14:18:50;7.80;;;5.95;;
10313;SDS011;5202;49.138;10.090;2023-08-17T14:21:19;10.40;;;6.88;;
10313;SDS011;5202;49.138;10.090;2023-08-17T14:23:47;7.38;;;6.07;;
10313;SDS011;5202;49.138;10.090;2023-08-17T14:26:16;7.90;;;6.43;;
10313;SDS011;5202;49.138;10.090;2023-08-17T14:28:45;6.65;;;5.47;;
10313;SDS011;5202;49.138;10.090;2023-08-17T14:31:14;9.00;;;6.78;;
10313;SDS011;5202;49.138;10.090;2023-08-17T14:33:44;9.63;;;6.50;;
10313;SDS011;5202;49.138;10.090;2023-08-17T14:36:14;7.60;;;6.57;;
10313;SDS011;5202;49.138;10.090;2023-08-17T14:38:46;7.60;;;6.80;;
10313;SDS011;5202;49.138;10.090;2023-08-17T14:41:14;11.73;;;6.57;;
10313;SDS011;5202;49.138;10.090;2023-08-17T14:43:43;7.90;;;7.10;;
10313;SDS011;5202;49.138;10.090;2023-08-17T14:46:11;8.13;;;6.60;;
10313;SDS011;5202;49.138;10.090;2023-08-17T14:48:42;8.98;;;6.85;;
10313;SDS011;5202;49.138;10.090;2023-08-17T14:51:11;8.15;;;7.25;;
10313;SDS011;5202;49.138;10.090;2023-08-17T14:53:39;10.20;;;6.75;;
10313;SDS011;5202;49.138;10.090;2023-08-17T14:56:07;7.47;;;6.72;;
10313;SDS011;5202;49.138;10.090;2023-08-17T14:58:35;9.50;;;6.60;;
10313;SDS011;5202;49.138;10.090;2023-08-17T15:01:04;8.48;;;6.53;;
10313;SDS011;5202;49.138;10.090;2023-08-17T15:03:33;6.72;;;6.13;;
10313;SDS011;5202;49.138;10.090;2023-08-17T15:06:02;7.25;;;6.20;;
10313;SDS011;5202;49.138;10.090;2023-08-17T15:08:31;6.72;;;5.95;;